PWSweather.com
Personal Weather Stations
Station Observations
RIORANCHO
Corrales Heights, Rio Rancho, NM 87124

Corrales HeightsRio Rancho, NM 87124

Lat: 35.241928, Lon: -106.647095

Elevation: 5297

Station Type: Davis Vantage Pro 2 Plus

http://www.weatherriorancho.com

High Low Average
Temperature 86.5°F30.3°C 64.5°F18.1°C 73.3°F22.9°C
Dew Point 55.0°F12.8°C 38.7°F3.7°C 44.7°F7.1°C
Winds 10.4 mph 16.7 kmh Calm Calm 2.0 mph S3.2 kmh S
Wind Gusts 20.7 mph33.3 kmh -- 4.0 mph6.4 kmh
Humidity 66% 19% 37%
Pressure 30.18 in1022.0 mb 30.08 in1018.6 mb -
Precipitation 0.00 in0.0 mm - -
Hour Temp Dew Point Humidity Winds Wind Gusts Pressure Precip Precip Rate Daily Precip Total
12:00 AM 68.9°F20.5°C 40.8°F4.9°C 36% Calm Calm -- 30.10 in1019.3 mb - 0.00 in0.0 mm 0.00 in0.0 mm
12:10 AM 68.7°F20.4°C 41.4°F5.2°C 37% Calm Calm -- 30.10 in1019.3 mb - 0.00 in0.0 mm 0.00 in0.0 mm
12:20 AM 68.5°F20.3°C 41.9°F5.5°C 38% Calm Calm -- 30.11 in1019.6 mb - 0.00 in0.0 mm 0.00 in0.0 mm
12:30 AM 68.3°F20.2°C 41.7°F5.4°C 38% Calm Calm -- 30.11 in1019.6 mb - 0.00 in0.0 mm 0.00 in0.0 mm
12:40 AM 68.5°F20.3°C 41.2°F5.1°C 37% Calm Calm -- 30.11 in1019.6 mb - 0.00 in0.0 mm 0.00 in0.0 mm
12:50 AM 68.8°F20.4°C 41.5°F5.3°C 37% Calm Calm -- 30.11 in1019.6 mb - 0.00 in0.0 mm 0.00 in0.0 mm
01:00 AM 68.6°F20.3°C 41.2°F5.1°C 37% Calm Calm -- 30.11 in1019.6 mb - 0.00 in0.0 mm 0.00 in0.0 mm
01:10 AM 68.4°F20.2°C 41.1°F5.1°C 37% Calm Calm -- 30.11 in1019.6 mb - 0.00 in0.0 mm 0.00 in0.0 mm
01:20 AM 68.3°F20.2°C 41.0°F5.0°C 37% Calm Calm 2.3 mph3.7 kmh 30.11 in1019.6 mb - 0.00 in0.0 mm 0.00 in0.0 mm
01:30 AM 68.6°F20.3°C 40.6°F4.8°C 36% Calm Calm 1.2 mph1.9 kmh 30.12 in1020.0 mb - 0.00 in0.0 mm 0.00 in0.0 mm
01:40 AM 68.8°F20.4°C 40.7°F4.8°C 36% Calm Calm -- 30.12 in1020.0 mb - 0.00 in0.0 mm 0.00 in0.0 mm
01:50 AM 68.6°F20.3°C 41.3°F5.2°C 37% Calm Calm -- 30.12 in1020.0 mb - 0.00 in0.0 mm 0.00 in0.0 mm
02:00 AM 68.2°F20.1°C 41.6°F5.3°C 38% Calm Calm -- 30.12 in1020.0 mb - 0.00 in0.0 mm 0.00 in0.0 mm
02:10 AM 67.6°F19.8°C 41.7°F5.4°C 39% Calm Calm -- 30.12 in1020.0 mb - 0.00 in0.0 mm 0.00 in0.0 mm
02:20 AM 66.8°F19.3°C 41.0°F5.0°C 39% Calm Calm -- 30.12 in1020.0 mb - 0.00 in0.0 mm 0.00 in0.0 mm
02:30 AM 66.5°F19.2°C 41.4°F5.2°C 40% Calm Calm -- 30.12 in1020.0 mb - 0.00 in0.0 mm 0.00 in0.0 mm
02:40 AM 66.6°F19.2°C 40.9°F4.9°C 39% Calm Calm -- 30.12 in1020.0 mb - 0.00 in0.0 mm 0.00 in0.0 mm
02:50 AM 66.7°F19.3°C 40.9°F4.9°C 39% Calm Calm -- 30.12 in1020.0 mb - 0.00 in0.0 mm 0.00 in0.0 mm
03:00 AM 66.6°F19.2°C 40.9°F4.9°C 39% Calm Calm -- 30.12 in1020.0 mb - 0.00 in0.0 mm 0.00 in0.0 mm
03:10 AM 66.5°F19.2°C 40.1°F4.5°C 38% Calm Calm -- 30.12 in1020.0 mb - 0.00 in0.0 mm 0.00 in0.0 mm
03:20 AM 66.5°F19.2°C 40.1°F4.5°C 38% Calm Calm 1.2 mph1.9 kmh 30.12 in1020.0 mb - 0.00 in0.0 mm 0.00 in0.0 mm
03:30 AM 66.3°F19.1°C 39.9°F4.4°C 38% Calm Calm 2.3 mph3.7 kmh 30.12 in1020.0 mb - 0.00 in0.0 mm 0.00 in0.0 mm
03:40 AM 66.3°F19.1°C 39.9°F4.4°C 38% Calm Calm -- 30.12 in1020.0 mb - 0.00 in0.0 mm 0.00 in0.0 mm
03:50 AM 66.2°F19.0°C 40.5°F4.7°C 39% Calm Calm -- 30.12 in1020.0 mb - 0.00 in0.0 mm 0.00 in0.0 mm
04:00 AM 65.9°F18.8°C 40.2°F4.6°C 39% Calm Calm 1.2 mph1.9 kmh 30.12 in1020.0 mb - 0.00 in0.0 mm 0.00 in0.0 mm
04:10 AM 65.4°F18.6°C 39.8°F4.3°C 39% Calm Calm 1.2 mph1.9 kmh 30.12 in1020.0 mb - 0.00 in0.0 mm 0.00 in0.0 mm
04:20 AM 65.0°F18.3°C 40.1°F4.5°C 40% 1.2 mph SE1.9 kmh SE 2.3 mph3.7 kmh 30.12 in1020.0 mb - 0.00 in0.0 mm 0.00 in0.0 mm
04:30 AM 64.7°F18.2°C 40.4°F4.7°C 41% 2.3 mph SE3.7 kmh SE 5.8 mph9.3 kmh 30.13 in1020.3 mb - 0.00 in0.0 mm 0.00 in0.0 mm
04:40 AM 64.6°F18.1°C 40.4°F4.7°C 41% 3.5 mph SE5.6 kmh SE 3.5 mph5.6 kmh 30.13 in1020.3 mb - 0.00 in0.0 mm 0.00 in0.0 mm
04:50 AM 64.6°F18.1°C 39.7°F4.3°C 40% 2.3 mph SE3.7 kmh SE 3.5 mph5.6 kmh 30.13 in1020.3 mb - 0.00 in0.0 mm 0.00 in0.0 mm
05:00 AM 64.6°F18.1°C 39.8°F4.3°C 40% Calm Calm 3.5 mph5.6 kmh 30.13 in1020.3 mb - 0.00 in0.0 mm 0.00 in0.0 mm
05:10 AM 64.5°F18.1°C 39.0°F3.9°C 39% 1.2 mph S1.9 kmh S 2.3 mph3.7 kmh 30.13 in1020.3 mb - 0.00 in0.0 mm 0.00 in0.0 mm
05:20 AM 64.7°F18.2°C 39.2°F4.0°C 39% Calm Calm -- 30.14 in1020.7 mb - 0.00 in0.0 mm 0.00 in0.0 mm
05:30 AM 64.8°F18.2°C 39.2°F4.0°C 39% 1.2 mph SE1.9 kmh SE 3.5 mph5.6 kmh 30.14 in1020.7 mb - 0.00 in0.0 mm 0.00 in0.0 mm
05:40 AM 65.0°F18.3°C 38.8°F3.8°C 38% 1.2 mph SE1.9 kmh SE 3.5 mph5.6 kmh 30.14 in1020.7 mb - 0.00 in0.0 mm 0.00 in0.0 mm
05:50 AM 65.1°F18.4°C 38.8°F3.8°C 38% Calm Calm 2.3 mph3.7 kmh 30.14 in1020.7 mb - 0.00 in0.0 mm 0.00 in0.0 mm
06:00 AM 65.3°F18.5°C 39.0°F3.9°C 38% Calm Calm -- 30.14 in1020.7 mb - 0.00 in0.0 mm 0.00 in0.0 mm
06:10 AM 65.5°F18.6°C 39.2°F4.0°C 38% Calm Calm 3.5 mph5.6 kmh 30.14 in1020.7 mb - 0.00 in0.0 mm 0.00 in0.0 mm
06:20 AM 65.7°F18.7°C 38.7°F3.7°C 37% Calm Calm -- 30.15 in1021.0 mb - 0.00 in0.0 mm 0.00 in0.0 mm
06:30 AM 65.8°F18.8°C 38.8°F3.8°C 37% Calm Calm -- 30.15 in1021.0 mb - 0.00 in0.0 mm 0.00 in0.0 mm
06:40 AM 65.9°F18.8°C 38.9°F3.8°C 37% Calm Calm -- 30.15 in1021.0 mb - 0.00 in0.0 mm 0.00 in0.0 mm
06:50 AM 65.9°F18.8°C 39.6°F4.2°C 38% Calm Calm 2.3 mph3.7 kmh 30.15 in1021.0 mb - 0.00 in0.0 mm 0.00 in0.0 mm
07:00 AM 65.9°F18.8°C 39.6°F4.2°C 38% Calm Calm 2.3 mph3.7 kmh 30.16 in1021.3 mb - 0.00 in0.0 mm 0.00 in0.0 mm
07:10 AM 66.3°F19.1°C 40.6°F4.8°C 39% Calm Calm -- 30.16 in1021.3 mb - 0.00 in0.0 mm 0.00 in0.0 mm
07:20 AM 67.0°F19.4°C 40.6°F4.8°C 38% Calm Calm 2.3 mph3.7 kmh 30.16 in1021.3 mb - 0.00 in0.0 mm 0.00 in0.0 mm
07:30 AM 67.5°F19.7°C 41.0°F5.0°C 38% Calm Calm -- 30.16 in1021.3 mb - 0.00 in0.0 mm 0.00 in0.0 mm
07:40 AM 67.2°F19.6°C 41.4°F5.2°C 39% Calm Calm -- 30.16 in1021.3 mb - 0.00 in0.0 mm 0.00 in0.0 mm
07:50 AM 67.7°F19.8°C 41.8°F5.4°C 39% Calm Calm -- 30.16 in1021.3 mb - 0.00 in0.0 mm 0.00 in0.0 mm
08:00 AM 68.5°F20.3°C 41.8°F5.4°C 38% Calm Calm -- 30.16 in1021.3 mb - 0.00 in0.0 mm 0.00 in0.0 mm
08:10 AM 70.3°F21.3°C 42.8°F6.0°C 37% 2.3 mph SE3.7 kmh SE 4.6 mph7.4 kmh 30.17 in1021.7 mb - 0.00 in0.0 mm 0.00 in0.0 mm
08:20 AM 70.6°F21.4°C 43.1°F6.2°C 37% Calm Calm -- 30.17 in1021.7 mb - 0.00 in0.0 mm 0.00 in0.0 mm
08:30 AM 70.6°F21.4°C 43.7°F6.5°C 38% Calm Calm -- 30.17 in1021.7 mb - 0.00 in0.0 mm 0.00 in0.0 mm
08:40 AM 70.7°F21.5°C 44.6°F7.0°C 39% Calm Calm -- 30.17 in1021.7 mb - 0.00 in0.0 mm 0.00 in0.0 mm
08:50 AM 71.0°F21.7°C 44.8°F7.1°C 39% Calm Calm -- 30.17 in1021.7 mb - 0.00 in0.0 mm 0.00 in0.0 mm
09:00 AM 71.5°F21.9°C 44.6°F7.0°C 38% Calm Calm -- 30.17 in1021.7 mb - 0.00 in0.0 mm 0.00 in0.0 mm
09:10 AM 73.2°F22.9°C 43.9°F6.6°C 35% Calm Calm 5.8 mph9.3 kmh 30.17 in1021.7 mb - 0.00 in0.0 mm 0.00 in0.0 mm
09:20 AM 74.6°F23.7°C 44.3°F6.8°C 34% 3.5 mph SE5.6 kmh SE 4.6 mph7.4 kmh 30.17 in1021.7 mb - 0.00 in0.0 mm 0.00 in0.0 mm
09:30 AM 75.4°F24.1°C 44.3°F6.8°C 33% 1.2 mph SSE1.9 kmh SSE 4.6 mph7.4 kmh 30.17 in1021.7 mb - 0.00 in0.0 mm 0.00 in0.0 mm
09:40 AM 75.6°F24.2°C 44.5°F6.9°C 33% Calm Calm -- 30.17 in1021.7 mb - 0.00 in0.0 mm 0.00 in0.0 mm
09:50 AM 76.1°F24.5°C 44.1°F6.7°C 32% 2.3 mph SE3.7 kmh SE 2.3 mph3.7 kmh 30.17 in1021.7 mb - 0.00 in0.0 mm 0.00 in0.0 mm
10:00 AM 77.3°F25.2°C 45.9°F7.7°C 33% 3.5 mph SE5.6 kmh SE 3.5 mph5.6 kmh 30.16 in1021.3 mb - 0.00 in0.0 mm 0.00 in0.0 mm
10:10 AM 77.8°F25.4°C 47.2°F8.4°C 34% 1.2 mph SE1.9 kmh SE 3.5 mph5.6 kmh 30.16 in1021.3 mb - 0.00 in0.0 mm 0.00 in0.0 mm
10:20 AM 78.4°F25.8°C 47.0°F8.3°C 33% 1.2 mph SE1.9 kmh SE 3.5 mph5.6 kmh 30.16 in1021.3 mb - 0.00 in0.0 mm 0.00 in0.0 mm
10:30 AM 79.9°F26.6°C 46.5°F8.1°C 31% 2.3 mph SE3.7 kmh SE 3.5 mph5.6 kmh 30.16 in1021.3 mb - 0.00 in0.0 mm 0.00 in0.0 mm
10:40 AM 80.5°F26.9°C 47.1°F8.4°C 31% 2.3 mph S3.7 kmh S 9.2 mph14.8 kmh 30.16 in1021.3 mb - 0.00 in0.0 mm 0.00 in0.0 mm
10:50 AM 80.6°F27.0°C 48.0°F8.9°C 32% 3.5 mph SE5.6 kmh SE 5.8 mph9.3 kmh 30.15 in1021.0 mb - 0.00 in0.0 mm 0.00 in0.0 mm
11:00 AM 80.8°F27.1°C 47.3°F8.5°C 31% 4.6 mph ESE7.4 kmh ESE 9.2 mph14.8 kmh 30.15 in1021.0 mb - 0.00 in0.0 mm 0.00 in0.0 mm
11:10 AM 81.4°F27.4°C 47.8°F8.8°C 31% 3.5 mph SE5.6 kmh SE 6.9 mph11.1 kmh 30.15 in1021.0 mb - 0.00 in0.0 mm 0.00 in0.0 mm
11:20 AM 81.9°F27.7°C 47.4°F8.6°C 30% 3.5 mph SSE5.6 kmh SSE 6.9 mph11.1 kmh 30.14 in1020.7 mb - 0.00 in0.0 mm 0.00 in0.0 mm
11:30 AM 82.1°F27.8°C 48.5°F9.2°C 31% 5.8 mph SE9.3 kmh SE 9.2 mph14.8 kmh 30.14 in1020.7 mb - 0.00 in0.0 mm 0.00 in0.0 mm
11:40 AM 82.5°F28.1°C 47.9°F8.8°C 30% 5.8 mph SE9.3 kmh SE 11.5 mph18.5 kmh 30.14 in1020.7 mb - 0.00 in0.0 mm 0.00 in0.0 mm
11:50 AM 82.8°F28.2°C 49.0°F9.4°C 31% 2.3 mph SSE3.7 kmh SSE 5.8 mph9.3 kmh 30.14 in1020.7 mb - 0.00 in0.0 mm 0.00 in0.0 mm
12:00 PM 83.4°F28.6°C 48.7°F9.3°C 30% 6.9 mph SE11.1 kmh SE 11.5 mph18.5 kmh 30.13 in1020.3 mb - 0.00 in0.0 mm 0.00 in0.0 mm
12:10 PM 83.3°F28.5°C 47.7°F8.7°C 29% 4.6 mph SSE7.4 kmh SSE 9.2 mph14.8 kmh 30.13 in1020.3 mb - 0.00 in0.0 mm 0.00 in0.0 mm
12:20 PM 83.2°F28.4°C 48.5°F9.2°C 30% 1.2 mph SE1.9 kmh SE 3.5 mph5.6 kmh 30.13 in1020.3 mb - 0.00 in0.0 mm 0.00 in0.0 mm
12:30 PM 83.6°F28.7°C 48.0°F8.9°C 29% 6.9 mph S11.1 kmh S 13.8 mph22.2 kmh 30.12 in1020.0 mb - 0.00 in0.0 mm 0.00 in0.0 mm
12:40 PM 83.6°F28.7°C 47.0°F8.3°C 28% 3.5 mph SE5.6 kmh SE 10.4 mph16.7 kmh 30.12 in1020.0 mb - 0.00 in0.0 mm 0.00 in0.0 mm
12:50 PM 84.7°F29.3°C 47.0°F8.3°C 27% 2.3 mph SE3.7 kmh SE 3.5 mph5.6 kmh 30.11 in1019.6 mb - 0.00 in0.0 mm 0.00 in0.0 mm
01:00 PM 84.8°F29.3°C 46.1°F7.8°C 26% 4.6 mph SE7.4 kmh SE 10.4 mph16.7 kmh 30.11 in1019.6 mb - 0.00 in0.0 mm 0.00 in0.0 mm
01:10 PM 84.8°F29.3°C 44.0°F6.7°C 24% 3.5 mph SE5.6 kmh SE 6.9 mph11.1 kmh 30.10 in1019.3 mb - 0.00 in0.0 mm 0.00 in0.0 mm
01:20 PM 85.4°F29.7°C 41.0°F5.0°C 21% 3.5 mph S5.6 kmh S 6.9 mph11.1 kmh 30.10 in1019.3 mb - 0.00 in0.0 mm 0.00 in0.0 mm
01:30 PM 85.7°F29.8°C 43.6°F6.4°C 23% 3.5 mph ESE5.6 kmh ESE 3.5 mph5.6 kmh 30.10 in1019.3 mb - 0.00 in0.0 mm 0.00 in0.0 mm
01:40 PM 86.5°F30.3°C 39.3°F4.1°C 19% 5.8 mph ESE9.3 kmh ESE 6.9 mph11.1 kmh 30.10 in1019.3 mb - 0.00 in0.0 mm 0.00 in0.0 mm
01:50 PM 85.2°F29.6°C 42.0°F5.6°C 22% Calm Calm -- 30.09 in1019.0 mb - 0.00 in0.0 mm 0.00 in0.0 mm
02:00 PM 84.1°F28.9°C 43.4°F6.3°C 24% 3.5 mph E5.6 kmh E 3.5 mph5.6 kmh 30.09 in1019.0 mb - 0.00 in0.0 mm 0.00 in0.0 mm
02:10 PM 83.9°F28.8°C 44.3°F6.8°C 25% 3.5 mph SE5.6 kmh SE 4.6 mph7.4 kmh 30.09 in1019.0 mb - 0.00 in0.0 mm 0.00 in0.0 mm
02:20 PM 84.1°F28.9°C 45.5°F7.5°C 26% 2.3 mph SE3.7 kmh SE 1.2 mph1.9 kmh 30.08 in1018.6 mb - 0.00 in0.0 mm 0.00 in0.0 mm
02:30 PM 83.5°F28.6°C 44.0°F6.7°C 25% 1.2 mph SE1.9 kmh SE 3.5 mph5.6 kmh 30.08 in1018.6 mb - 0.00 in0.0 mm 0.00 in0.0 mm
02:40 PM 83.7°F28.7°C 45.2°F7.3°C 26% 3.5 mph SSE5.6 kmh SSE 8.1 mph13.0 kmh 30.08 in1018.6 mb - 0.00 in0.0 mm 0.00 in0.0 mm
02:50 PM 83.6°F28.7°C 44.0°F6.7°C 25% 2.3 mph S3.7 kmh S 3.5 mph5.6 kmh 30.08 in1018.6 mb - 0.00 in0.0 mm 0.00 in0.0 mm
03:00 PM 83.1°F28.4°C 44.7°F7.1°C 26% 4.6 mph SSE7.4 kmh SSE 10.4 mph16.7 kmh 30.08 in1018.6 mb - 0.00 in0.0 mm 0.00 in0.0 mm
03:10 PM 82.7°F28.2°C 43.3°F6.3°C 25% 4.6 mph SE7.4 kmh SE 9.2 mph14.8 kmh 30.08 in1018.6 mb - 0.00 in0.0 mm 0.00 in0.0 mm
03:20 PM 82.1°F27.8°C 43.8°F6.6°C 26% 2.3 mph S3.7 kmh S 9.2 mph14.8 kmh 30.08 in1018.6 mb - 0.00 in0.0 mm 0.00 in0.0 mm
03:30 PM 82.1°F27.8°C 42.8°F6.0°C 25% 2.3 mph SE3.7 kmh SE 4.6 mph7.4 kmh 30.08 in1018.6 mb - 0.00 in0.0 mm 0.00 in0.0 mm
03:40 PM 82.1°F27.8°C 41.7°F5.4°C 24% 2.3 mph S3.7 kmh S 11.5 mph18.5 kmh 30.08 in1018.6 mb - 0.00 in0.0 mm 0.00 in0.0 mm
03:50 PM 82.1°F27.8°C 39.5°F4.2°C 22% 3.5 mph S5.6 kmh S 6.9 mph11.1 kmh 30.08 in1018.6 mb - 0.00 in0.0 mm 0.00 in0.0 mm
04:00 PM 82.1°F27.8°C 40.6°F4.8°C 23% 4.6 mph S7.4 kmh S 9.2 mph14.8 kmh 30.08 in1018.6 mb - 0.00 in0.0 mm 0.00 in0.0 mm
04:10 PM 81.8°F27.7°C 41.5°F5.3°C 24% 3.5 mph SSW5.6 kmh SSW 6.9 mph11.1 kmh 30.08 in1018.6 mb - 0.00 in0.0 mm 0.00 in0.0 mm
04:20 PM 81.8°F27.7°C 42.5°F5.8°C 25% 2.3 mph S3.7 kmh S 8.1 mph13.0 kmh 30.08 in1018.6 mb - 0.00 in0.0 mm 0.00 in0.0 mm
04:30 PM 81.7°F27.6°C 42.5°F5.8°C 25% 1.2 mph SSW1.9 kmh SSW 3.5 mph5.6 kmh 30.08 in1018.6 mb - 0.00 in0.0 mm 0.00 in0.0 mm
04:40 PM 81.6°F27.6°C 42.4°F5.8°C 25% Calm Calm -- 30.08 in1018.6 mb - 0.00 in0.0 mm 0.00 in0.0 mm
04:50 PM 81.4°F27.4°C 41.1°F5.1°C 24% 1.2 mph S1.9 kmh S -- 30.08 in1018.6 mb - 0.00 in0.0 mm 0.00 in0.0 mm
05:00 PM 81.3°F27.4°C 41.0°F5.0°C 24% Calm Calm 4.6 mph7.4 kmh 30.08 in1018.6 mb - 0.00 in0.0 mm 0.00 in0.0 mm
05:10 PM 81.2°F27.3°C 41.0°F5.0°C 24% Calm Calm -- 30.08 in1018.6 mb - 0.00 in0.0 mm 0.00 in0.0 mm
05:20 PM 81.1°F27.3°C 40.9°F4.9°C 24% Calm Calm -- 30.08 in1018.6 mb - 0.00 in0.0 mm 0.00 in0.0 mm
05:30 PM 80.7°F27.1°C 44.6°F7.0°C 28% 3.5 mph WSW5.6 kmh WSW 8.1 mph13.0 kmh 30.09 in1019.0 mb - 0.00 in0.0 mm 0.00 in0.0 mm
05:40 PM 80.2°F26.8°C 44.1°F6.7°C 28% 4.6 mph WSW7.4 kmh WSW 6.9 mph11.1 kmh 30.09 in1019.0 mb - 0.00 in0.0 mm 0.00 in0.0 mm
05:50 PM 78.7°F25.9°C 47.9°F8.8°C 34% 6.9 mph W11.1 kmh W 11.5 mph18.5 kmh 30.10 in1019.3 mb - 0.00 in0.0 mm 0.00 in0.0 mm
06:00 PM 76.4°F24.7°C 49.6°F9.8°C 39% 6.9 mph W11.1 kmh W 16.1 mph25.9 kmh 30.10 in1019.3 mb - 0.00 in0.0 mm 0.00 in0.0 mm
06:10 PM 74.8°F23.8°C 50.2°F10.1°C 42% 6.9 mph W11.1 kmh W 16.1 mph25.9 kmh 30.10 in1019.3 mb - 0.00 in0.0 mm 0.00 in0.0 mm
06:20 PM 74.1°F23.4°C 49.6°F9.8°C 42% 10.4 mph WNW16.7 kmh WNW 20.7 mph33.3 kmh 30.10 in1019.3 mb - 0.00 in0.0 mm 0.00 in0.0 mm
06:30 PM 73.8°F23.2°C 49.3°F9.6°C 42% 6.9 mph WNW11.1 kmh WNW 11.5 mph18.5 kmh 30.10 in1019.3 mb - 0.00 in0.0 mm 0.00 in0.0 mm
06:40 PM 73.6°F23.1°C 49.1°F9.5°C 42% 3.5 mph W5.6 kmh W 15.0 mph24.1 kmh 30.10 in1019.3 mb - 0.00 in0.0 mm 0.00 in0.0 mm
06:50 PM 73.4°F23.0°C 49.6°F9.8°C 43% 4.6 mph WNW7.4 kmh WNW 6.9 mph11.1 kmh 30.11 in1019.6 mb - 0.00 in0.0 mm 0.00 in0.0 mm
07:00 PM 73.4°F23.0°C 48.9°F9.4°C 42% 5.8 mph W9.3 kmh W 11.5 mph18.5 kmh 30.11 in1019.6 mb - 0.00 in0.0 mm 0.00 in0.0 mm
07:10 PM 73.3°F22.9°C 47.5°F8.6°C 40% 2.3 mph WNW3.7 kmh WNW 4.6 mph7.4 kmh 30.12 in1020.0 mb - 0.00 in0.0 mm 0.00 in0.0 mm
07:20 PM 73.1°F22.8°C 47.3°F8.5°C 40% Calm Calm -- 30.13 in1020.3 mb - 0.00 in0.0 mm 0.00 in0.0 mm
07:30 PM 73.0°F22.8°C 47.9°F8.8°C 41% Calm Calm -- 30.14 in1020.7 mb - 0.00 in0.0 mm 0.00 in0.0 mm
07:40 PM 73.0°F22.8°C 47.2°F8.4°C 40% 1.2 mph SW1.9 kmh SW 3.5 mph5.6 kmh 30.14 in1020.7 mb - 0.00 in0.0 mm 0.00 in0.0 mm
07:50 PM 73.0°F22.8°C 47.2°F8.4°C 40% Calm Calm -- 30.14 in1020.7 mb - 0.00 in0.0 mm 0.00 in0.0 mm
08:00 PM 73.1°F22.8°C 51.1°F10.6°C 46% Calm Calm -- 30.14 in1020.7 mb - 0.00 in0.0 mm 0.00 in0.0 mm
08:10 PM 72.7°F22.6°C 51.8°F11.0°C 48% Calm Calm -- 30.14 in1020.7 mb - 0.00 in0.0 mm 0.00 in0.0 mm
08:20 PM 71.8°F22.1°C 52.1°F11.2°C 50% Calm Calm -- 30.15 in1021.0 mb - 0.00 in0.0 mm 0.00 in0.0 mm
08:30 PM 71.5°F21.9°C 51.8°F11.0°C 50% Calm Calm -- 30.14 in1020.7 mb - 0.00 in0.0 mm 0.00 in0.0 mm
08:40 PM 71.2°F21.8°C 51.6°F10.9°C 50% Calm Calm -- 30.14 in1020.7 mb - 0.00 in0.0 mm 0.00 in0.0 mm
08:50 PM 70.7°F21.5°C 48.3°F9.1°C 45% 2.3 mph W3.7 kmh W 6.9 mph11.1 kmh 30.14 in1020.7 mb - 0.00 in0.0 mm 0.00 in0.0 mm
09:00 PM 70.4°F21.3°C 48.0°F8.9°C 45% 1.2 mph WSW1.9 kmh WSW -- 30.15 in1021.0 mb - 0.00 in0.0 mm 0.00 in0.0 mm
09:10 PM 70.3°F21.3°C 47.9°F8.8°C 45% 1.2 mph W1.9 kmh W 6.9 mph11.1 kmh 30.15 in1021.0 mb - 0.00 in0.0 mm 0.00 in0.0 mm
09:20 PM 70.1°F21.2°C 50.0°F10.0°C 49% 1.2 mph W1.9 kmh W 6.9 mph11.1 kmh 30.15 in1021.0 mb - 0.00 in0.0 mm 0.00 in0.0 mm
09:30 PM 68.7°F20.4°C 52.8°F11.6°C 57% 2.3 mph W3.7 kmh W 4.6 mph7.4 kmh 30.14 in1020.7 mb - 0.00 in0.0 mm 0.00 in0.0 mm
09:40 PM 67.8°F19.9°C 52.0°F11.1°C 57% 3.5 mph WNW5.6 kmh WNW 8.1 mph13.0 kmh 30.15 in1021.0 mb - 0.00 in0.0 mm 0.00 in0.0 mm
09:50 PM 67.6°F19.8°C 52.3°F11.3°C 58% 3.5 mph W5.6 kmh W 3.5 mph5.6 kmh 30.15 in1021.0 mb - 0.00 in0.0 mm 0.00 in0.0 mm
10:00 PM 67.5°F19.7°C 51.7°F10.9°C 57% 4.6 mph WNW7.4 kmh WNW 9.2 mph14.8 kmh 30.15 in1021.0 mb - 0.00 in0.0 mm 0.00 in0.0 mm
10:10 PM 67.3°F19.6°C 52.0°F11.1°C 58% 3.5 mph WNW5.6 kmh WNW 4.6 mph7.4 kmh 30.15 in1021.0 mb - 0.00 in0.0 mm 0.00 in0.0 mm
10:20 PM 67.2°F19.6°C 51.9°F11.1°C 58% 3.5 mph NW5.6 kmh NW 6.9 mph11.1 kmh 30.15 in1021.0 mb - 0.00 in0.0 mm 0.00 in0.0 mm
10:30 PM 67.3°F19.6°C 51.5°F10.8°C 57% 2.3 mph NW3.7 kmh NW 3.5 mph5.6 kmh 30.15 in1021.0 mb - 0.00 in0.0 mm 0.00 in0.0 mm
10:40 PM 67.4°F19.7°C 51.6°F10.9°C 57% 2.3 mph WNW3.7 kmh WNW 5.8 mph9.3 kmh 30.16 in1021.3 mb - 0.00 in0.0 mm 0.00 in0.0 mm
10:50 PM 67.5°F19.7°C 51.7°F10.9°C 57% Calm Calm -- 30.15 in1021.0 mb - 0.00 in0.0 mm 0.00 in0.0 mm
11:00 PM 67.5°F19.7°C 52.2°F11.2°C 58% Calm Calm -- 30.16 in1021.3 mb - 0.00 in0.0 mm 0.00 in0.0 mm
11:10 PM 67.6°F19.8°C 52.3°F11.3°C 58% Calm Calm -- 30.16 in1021.3 mb - 0.00 in0.0 mm 0.00 in0.0 mm
11:20 PM 67.6°F19.8°C 52.3°F11.3°C 58% Calm Calm -- 30.16 in1021.3 mb - 0.00 in0.0 mm 0.00 in0.0 mm
11:30 PM 67.6°F19.8°C 53.7°F12.1°C 61% Calm Calm -- 30.16 in1021.3 mb - 0.00 in0.0 mm 0.00 in0.0 mm
11:40 PM 67.4°F19.7°C 54.8°F12.7°C 64% Calm Calm -- 30.17 in1021.7 mb - 0.00 in0.0 mm 0.00 in0.0 mm
11:50 PM 66.8°F19.3°C 55.0°F12.8°C 66% Calm Calm 1.2 mph1.9 kmh 30.18 in1022.0 mb - 0.00 in0.0 mm 0.00 in0.0 mm